createdAt,value
2023-03-11T00:00:25.935Z,3.30
2023-03-11T00:02:53.601Z,3.30
2023-03-11T00:05:22.039Z,3.20
2023-03-11T00:07:49.232Z,3.10
2023-03-11T00:10:16.903Z,3.00
2023-03-11T00:12:44.054Z,3.00
2023-03-11T00:15:11.396Z,3.00
2023-03-11T00:17:38.494Z,2.90
2023-03-11T00:20:06.888Z,2.90
2023-03-11T00:22:34.063Z,2.90
2023-03-11T00:25:01.197Z,2.80
2023-03-11T00:27:28.363Z,2.80
2023-03-11T00:29:55.514Z,2.70
2023-03-11T00:32:22.663Z,2.70
2023-03-11T00:34:49.802Z,2.70
2023-03-11T00:37:16.914Z,2.60
2023-03-11T00:39:44.187Z,2.60
2023-03-11T00:42:11.713Z,2.60
2023-03-11T00:44:39.561Z,2.60
2023-03-11T00:47:06.717Z,2.60
2023-03-11T00:49:33.962Z,2.50
2023-03-11T00:52:01.095Z,2.50
2023-03-11T00:54:28.308Z,2.50
2023-03-11T00:56:55.467Z,2.50
2023-03-11T00:59:22.708Z,2.40
2023-03-11T01:01:49.877Z,2.40
2023-03-11T01:04:17.025Z,2.40
2023-03-11T01:06:46.082Z,2.30
2023-03-11T01:09:13.245Z,2.30
2023-03-11T01:11:40.378Z,2.40
2023-03-11T01:14:08.752Z,2.30
2023-03-11T01:16:35.857Z,2.30
2023-03-11T01:19:02.997Z,2.30
2023-03-11T01:21:30.124Z,2.20
2023-03-11T01:23:57.217Z,2.20
2023-03-11T01:26:24.357Z,2.20
2023-03-11T01:28:51.461Z,2.20
2023-03-11T01:31:18.616Z,2.20
2023-03-11T01:33:45.705Z,2.20
2023-03-11T01:36:12.959Z,2.20
2023-03-11T01:38:40.060Z,2.10
2023-03-11T01:41:07.172Z,2.10
2023-03-11T01:43:37.266Z,2.10
2023-03-11T01:46:08.127Z,2.10
2023-03-11T01:48:35.418Z,2.00
2023-03-11T01:51:02.559Z,2.00
2023-03-11T01:53:29.668Z,2.00
2023-03-11T01:55:56.941Z,2.00
2023-03-11T01:58:24.958Z,2.00
2023-03-11T02:00:52.358Z,2.00
2023-03-11T02:03:30.852Z,2.00
2023-03-11T02:05:58.303Z,1.90
2023-03-11T02:08:25.454Z,1.90
2023-03-11T02:10:54.128Z,1.90
2023-03-11T02:13:21.397Z,1.90
2023-03-11T02:15:48.477Z,1.90
2023-03-11T02:18:15.765Z,1.80
2023-03-11T02:20:43.488Z,1.80
2023-03-11T02:23:16.348Z,1.80
2023-03-11T02:26:03.643Z,1.80
2023-03-11T02:28:31.224Z,1.70
2023-03-11T02:30:58.448Z,1.70
2023-03-11T02:33:26.897Z,1.70
2023-03-11T02:35:53.985Z,1.70
2023-03-11T02:38:21.081Z,1.70
2023-03-11T02:40:49.635Z,1.70
2023-03-11T02:43:20.102Z,1.70
2023-03-11T02:45:47.212Z,1.60
2023-03-11T02:48:14.479Z,1.60
2023-03-11T02:50:42.630Z,1.60
2023-03-11T02:53:10.093Z,1.60
2023-03-11T02:55:37.231Z,1.60
2023-03-11T02:58:04.325Z,1.50
2023-03-11T03:00:32.455Z,1.60
2023-03-11T03:03:04.812Z,1.50
2023-03-11T03:05:31.987Z,1.50
2023-03-11T03:07:59.653Z,1.50
2023-03-11T03:10:26.708Z,1.50
2023-03-11T03:12:53.947Z,1.50
2023-03-11T03:15:21.408Z,1.40
2023-03-11T03:17:48.633Z,1.40
2023-03-11T03:20:15.769Z,1.40
2023-03-11T03:22:48.020Z,1.40
2023-03-11T03:25:17.698Z,1.40
2023-03-11T03:27:45.219Z,1.40
2023-03-11T03:30:12.986Z,1.40
2023-03-11T03:32:40.940Z,1.40
2023-03-11T03:35:11.997Z,1.30
2023-03-11T03:37:58.384Z,1.30
2023-03-11T03:40:25.625Z,1.30
2023-03-11T03:42:54.094Z,1.30
2023-03-11T03:45:21.781Z,1.30
2023-03-11T03:47:52.301Z,1.30
2023-03-11T03:50:21.214Z,1.30
2023-03-11T03:52:50.246Z,1.20
2023-03-11T03:55:17.416Z,1.20
2023-03-11T03:57:44.553Z,1.20
2023-03-11T04:00:13.707Z,1.20
2023-03-11T04:02:40.794Z,1.20
2023-03-11T04:05:13.927Z,1.20
2023-03-11T04:07:42.307Z,1.10
2023-03-11T04:10:10.046Z,1.20
2023-03-11T04:12:37.979Z,1.10
2023-03-11T04:15:05.321Z,1.10
2023-03-11T04:17:32.476Z,1.10
2023-03-11T04:19:59.720Z,1.10
2023-03-11T04:22:26.842Z,1.10
2023-03-11T04:24:54.064Z,1.10
2023-03-11T04:27:21.216Z,1.10
2023-03-11T04:29:48.318Z,1.00
2023-03-11T04:32:15.558Z,1.00
2023-03-11T04:34:44.062Z,1.00
2023-03-11T04:37:13.436Z,1.00
2023-03-11T04:39:41.664Z,1.00
2023-03-11T04:42:08.952Z,1.00
2023-03-11T04:44:37.373Z,1.00
2023-03-11T04:47:05.781Z,1.00
2023-03-11T04:49:32.918Z,1.00
2023-03-11T04:52:00.133Z,1.00
2023-03-11T04:54:27.318Z,1.00
2023-03-11T04:56:54.407Z,1.10
2023-03-11T04:59:22.539Z,1.00
2023-03-11T05:01:51.284Z,1.10
2023-03-11T05:04:18.451Z,1.10
2023-03-11T05:06:45.595Z,1.10
2023-03-11T05:09:13.887Z,1.10
2023-03-11T05:11:41.248Z,1.10
2023-03-11T05:14:08.965Z,1.10
2023-03-11T05:16:36.117Z,1.10
2023-03-11T05:19:27.654Z,1.10
2023-03-11T05:21:55.488Z,1.10
2023-03-11T05:24:23.270Z,1.10
2023-03-11T05:26:51.645Z,1.10
2023-03-11T05:29:18.841Z,1.10
2023-03-11T05:31:48.259Z,1.10
2023-03-11T05:34:15.817Z,1.20
2023-03-11T05:36:43.218Z,1.10
2023-03-11T05:39:10.425Z,1.10
2023-03-11T05:41:37.667Z,1.10
2023-03-11T05:44:04.795Z,1.10
2023-03-11T05:46:32.364Z,1.10
2023-03-11T05:49:00.451Z,1.10
2023-03-11T05:51:27.596Z,1.10
2023-03-11T05:53:54.744Z,1.10
2023-03-11T05:56:30.063Z,1.10
2023-03-11T05:58:57.667Z,1.10
2023-03-11T06:01:26.012Z,1.10
2023-03-11T06:03:53.159Z,1.10
2023-03-11T06:06:20.667Z,1.00
2023-03-11T06:08:50.096Z,1.10
2023-03-11T06:11:18.921Z,1.00
2023-03-11T06:13:46.182Z,1.00
2023-03-11T06:16:13.899Z,1.00
2023-03-11T06:18:41.191Z,1.00
2023-03-11T06:21:08.790Z,1.00
2023-03-11T06:23:36.117Z,1.00
2023-03-11T06:26:04.106Z,1.00
2023-03-11T06:28:36.503Z,0.90
2023-03-11T06:31:16.767Z,0.90
2023-03-11T06:33:44.172Z,0.90
2023-03-11T06:36:12.741Z,0.90
2023-03-11T06:38:39.861Z,0.90
2023-03-11T06:41:07.067Z,0.90
2023-03-11T06:43:35.952Z,0.90
2023-03-11T06:46:10.706Z,0.90
2023-03-11T06:48:39.191Z,0.90
2023-03-11T06:51:06.463Z,0.90
2023-03-11T06:53:34.576Z,0.90
2023-03-11T06:56:02.180Z,0.90
2023-03-11T06:58:31.161Z,0.90
2023-03-11T07:01:24.819Z,1.00
2023-03-11T07:03:54.405Z,1.00
2023-03-11T07:06:24.111Z,1.00
2023-03-11T07:08:53.243Z,1.00
2023-03-11T07:11:24.592Z,1.10
2023-03-11T07:13:54.006Z,1.10
2023-03-11T07:16:24.947Z,1.20
2023-03-11T07:18:56.632Z,1.20
2023-03-11T07:21:23.781Z,1.40
2023-03-11T07:23:54.276Z,1.50
2023-03-11T07:26:21.390Z,1.80
2023-03-11T07:28:49.345Z,1.80
2023-03-11T07:31:17.322Z,1.90
2023-03-11T07:33:44.468Z,1.90
2023-03-11T07:36:12.431Z,1.90
2023-03-11T07:38:40.586Z,1.70
2023-03-11T07:41:09.087Z,1.70
2023-03-11T07:43:36.344Z,1.80
2023-03-11T07:46:07.737Z,2.10
2023-03-11T07:48:35.301Z,2.30
2023-03-11T07:51:10.434Z,2.50
2023-03-11T07:53:37.522Z,2.70
2023-03-11T07:56:04.952Z,2.80
2023-03-11T07:58:33.108Z,2.80
2023-03-11T08:01:10.634Z,2.80
2023-03-11T08:03:39.903Z,2.80
2023-03-11T08:06:20.015Z,2.80
2023-03-11T08:08:48.499Z,2.80
2023-03-11T08:11:15.691Z,2.80
2023-03-11T08:13:44.320Z,2.80
2023-03-11T08:16:13.222Z,2.80
2023-03-11T08:18:40.509Z,2.90
2023-03-11T08:21:08.312Z,3.00
2023-03-11T08:23:35.471Z,2.90
2023-03-11T08:26:03.277Z,3.00
2023-03-11T08:28:30.342Z,2.80
2023-03-11T08:31:03.882Z,2.80
2023-03-11T08:33:31.184Z,2.70
2023-03-11T08:35:58.350Z,2.60
2023-03-11T08:38:26.790Z,2.50
2023-03-11T08:40:53.945Z,2.60
2023-03-11T08:43:21.070Z,2.70
2023-03-11T08:45:48.260Z,2.90
2023-03-11T08:48:15.402Z,2.90
2023-03-11T08:50:53.346Z,3.10
2023-03-11T08:53:24.725Z,3.00
2023-03-11T08:55:51.815Z,3.00
2023-03-11T08:58:36.297Z,3.00
2023-03-11T09:01:03.679Z,3.00
2023-03-11T09:03:31.342Z,3.10
2023-03-11T09:06:26.590Z,3.10
2023-03-11T09:08:53.690Z,3.10
2023-03-11T09:11:22.489Z,3.30
2023-03-11T09:13:50.679Z,3.30
2023-03-11T09:16:19.041Z,3.40
2023-03-11T09:19:11.336Z,3.40
2023-03-11T09:21:38.420Z,3.50
2023-03-11T09:24:05.610Z,3.50
2023-03-11T09:26:33.810Z,3.40
2023-03-11T09:29:00.854Z,3.50
2023-03-11T09:31:28.027Z,3.60
2023-03-11T09:34:01.415Z,3.60
2023-03-11T09:36:28.533Z,3.70
2023-03-11T09:38:55.663Z,3.80
2023-03-11T09:41:57.193Z,3.60
2023-03-11T09:44:36.783Z,3.60
2023-03-11T09:47:04.251Z,3.50
2023-03-11T09:49:51.183Z,3.70
2023-03-11T09:52:25.618Z,3.90
2023-03-11T09:55:11.573Z,4.10
2023-03-11T09:57:39.514Z,4.20
2023-03-11T10:00:06.899Z,4.20
2023-03-11T10:02:41.639Z,4.10
2023-03-11T10:05:14.054Z,4.20
2023-03-11T10:07:43.972Z,4.20
2023-03-11T10:10:14.357Z,4.20
2023-03-11T10:13:02.279Z,4.20
2023-03-11T10:15:39.828Z,4.30
2023-03-11T10:18:27.762Z,4.40
2023-03-11T10:20:54.799Z,4.40
2023-03-11T10:23:39.209Z,4.40
2023-03-11T10:26:13.799Z,4.50
2023-03-11T10:29:06.775Z,4.70
2023-03-11T10:31:38.152Z,4.80
2023-03-11T10:34:15.523Z,4.80
2023-03-11T10:36:51.356Z,4.80
2023-03-11T10:39:18.503Z,4.70
2023-03-11T10:42:09.468Z,4.60
2023-03-11T10:44:37.488Z,4.60
2023-03-11T10:47:05.815Z,4.80
2023-03-11T10:49:33.464Z,4.80
2023-03-11T10:52:00.513Z,4.90
2023-03-11T10:54:53.198Z,5.00
2023-03-11T10:57:30.191Z,5.10
2023-03-11T10:59:58.372Z,5.30
2023-03-11T11:02:26.057Z,5.40
2023-03-11T11:05:18.382Z,5.30
2023-03-11T11:07:53.197Z,5.10
2023-03-11T11:10:49.594Z,4.90
2023-03-11T11:13:20.260Z,4.80
2023-03-11T11:19:17.365Z,4.80
2023-03-11T11:21:48.774Z,4.80
2023-03-11T11:24:31.245Z,4.80
2023-03-11T11:27:16.927Z,4.80
2023-03-11T11:29:44.077Z,4.80
2023-03-11T11:32:29.178Z,4.80
2023-03-11T11:35:17.081Z,4.80
2023-03-11T11:37:46.408Z,4.90
2023-03-11T11:40:17.762Z,5.00
2023-03-11T11:42:55.609Z,4.90
2023-03-11T11:45:37.030Z,4.80
2023-03-11T11:48:25.497Z,4.80
2023-03-11T11:50:53.435Z,4.80
2023-03-11T11:53:24.901Z,4.80
2023-03-11T11:55:53.932Z,4.80
2023-03-11T11:58:21.226Z,5.00
2023-03-11T12:01:00.868Z,5.10
2023-03-11T12:03:27.876Z,5.10
2023-03-11T12:05:58.100Z,5.00
2023-03-11T12:08:27.156Z,5.10
2023-03-11T12:11:04.624Z,5.20
2023-03-11T12:13:50.219Z,5.30
2023-03-11T12:16:23.617Z,5.50
2023-03-11T12:18:56.868Z,5.50
2023-03-11T12:21:45.501Z,5.50
2023-03-11T12:24:18.674Z,5.50
2023-03-11T12:26:46.705Z,5.50
2023-03-11T12:29:26.659Z,5.50
2023-03-11T12:31:53.919Z,5.50
2023-03-11T12:34:22.000Z,5.50
2023-03-11T12:36:49.120Z,5.50
2023-03-11T12:39:22.253Z,5.50
2023-03-11T12:41:49.971Z,5.50
2023-03-11T12:44:20.114Z,5.50
2023-03-11T12:46:59.420Z,5.50
2023-03-11T12:49:30.532Z,5.40
2023-03-11T12:52:01.065Z,5.50
2023-03-11T12:54:39.384Z,5.50
2023-03-11T12:57:18.785Z,5.60
2023-03-11T13:00:19.125Z,5.60
2023-03-11T13:03:05.603Z,5.50
2023-03-11T13:05:35.752Z,5.50
2023-03-11T13:08:10.345Z,5.60
2023-03-11T13:10:41.123Z,5.60
2023-03-11T13:13:23.587Z,5.60
2023-03-11T13:15:51.200Z,5.60
2023-03-11T13:18:23.455Z,5.70
2023-03-11T13:20:55.910Z,5.70
2023-03-11T13:23:29.562Z,5.60
2023-03-11T13:26:03.045Z,5.60
2023-03-11T13:28:36.737Z,5.60
2023-03-11T13:31:22.630Z,5.60
2023-03-11T13:33:52.960Z,5.50
2023-03-11T13:36:36.946Z,5.50
2023-03-11T13:39:21.879Z,5.60
2023-03-11T13:41:49.001Z,5.60
2023-03-11T13:44:19.123Z,5.60
2023-03-11T13:46:49.885Z,5.60
2023-03-11T13:49:22.976Z,5.60
2023-03-11T13:51:50.127Z,5.60
2023-03-11T13:54:20.314Z,5.50
2023-03-11T13:56:58.140Z,5.50
2023-03-11T13:59:31.114Z,5.50
2023-03-11T14:02:15.144Z,5.50
2023-03-11T14:04:47.167Z,5.60
2023-03-11T14:07:14.790Z,5.70
2023-03-11T14:09:42.021Z,5.70
2023-03-11T14:12:12.110Z,5.70
2023-03-11T14:15:09.301Z,5.70
2023-03-11T14:17:36.820Z,5.70
2023-03-11T14:20:20.139Z,5.70
2023-03-11T14:22:47.629Z,5.70
2023-03-11T14:25:24.949Z,5.70
2023-03-11T14:27:53.566Z,5.80
2023-03-11T14:30:22.920Z,5.70
2023-03-11T14:32:57.318Z,5.80
2023-03-11T14:35:25.438Z,5.80
2023-03-11T14:37:52.628Z,5.80
2023-03-11T14:40:23.623Z,5.80
2023-03-11T14:42:53.781Z,5.80
2023-03-11T14:45:24.950Z,5.70
2023-03-11T14:48:04.262Z,5.70
2023-03-11T14:50:32.699Z,5.60
2023-03-11T14:52:59.867Z,5.60
2023-03-11T14:55:29.175Z,5.60
2023-03-11T14:58:06.448Z,5.70
2023-03-11T15:00:37.347Z,5.60
2023-03-11T15:03:07.461Z,5.60
2023-03-11T15:05:39.787Z,5.60
2023-03-11T15:08:07.429Z,5.50
2023-03-11T15:10:34.629Z,5.50
2023-03-11T15:13:19.873Z,5.50
2023-03-11T15:15:55.167Z,5.40
2023-03-11T15:18:23.469Z,5.40
2023-03-11T15:21:06.897Z,5.40
2023-03-11T15:23:34.552Z,5.30
2023-03-11T15:26:01.805Z,5.30
2023-03-11T15:28:29.360Z,5.20
2023-03-11T15:31:16.670Z,5.20
2023-03-11T15:33:44.093Z,5.20
2023-03-11T15:36:30.584Z,5.10
2023-03-11T15:39:11.201Z,5.10
2023-03-11T15:41:38.257Z,5.00
2023-03-11T15:44:07.524Z,4.90
2023-03-11T15:46:34.667Z,4.90
2023-03-11T15:49:01.830Z,4.80
2023-03-11T15:51:28.858Z,4.80
2023-03-11T15:53:55.995Z,4.70
2023-03-11T15:56:23.863Z,4.60
2023-03-11T15:58:50.975Z,4.60
2023-03-11T16:01:23.564Z,4.60
2023-03-11T16:03:51.272Z,4.60
2023-03-11T16:06:18.546Z,4.50
2023-03-11T16:08:45.622Z,4.50
2023-03-11T16:11:12.685Z,4.50
2023-03-11T16:13:39.894Z,4.40
2023-03-11T16:16:07.232Z,4.50
2023-03-11T16:18:35.658Z,4.40
2023-03-11T16:21:04.751Z,4.40
2023-03-11T16:23:44.808Z,4.40
2023-03-11T16:26:17.512Z,4.30
2023-03-11T16:28:44.564Z,4.30
2023-03-11T16:31:11.745Z,4.30
2023-03-11T16:33:38.815Z,4.20
2023-03-11T16:36:06.100Z,4.20
2023-03-11T16:38:36.352Z,4.20
2023-03-11T16:41:03.473Z,4.10
2023-03-11T16:43:30.662Z,4.10
2023-03-11T16:45:57.755Z,4.00
2023-03-11T16:48:24.871Z,4.00
2023-03-11T16:50:53.018Z,3.90
2023-03-11T16:53:20.210Z,3.90
2023-03-11T16:55:47.568Z,3.90
2023-03-11T16:58:14.888Z,3.80
2023-03-11T17:00:42.262Z,3.80
2023-03-11T17:03:12.917Z,3.80
2023-03-11T17:05:40.019Z,3.80
2023-03-11T17:08:07.124Z,3.70
2023-03-11T17:10:38.175Z,3.70
2023-03-11T17:13:05.752Z,3.70
2023-03-11T17:15:35.188Z,3.70
2023-03-11T17:18:02.262Z,3.60
2023-03-11T17:20:29.455Z,3.50
2023-03-11T17:22:56.525Z,3.50
2023-03-11T17:25:23.611Z,3.50
2023-03-11T17:27:50.712Z,3.50
2023-03-11T17:30:30.481Z,3.50
2023-03-11T17:33:03.099Z,3.50
2023-03-11T17:35:30.201Z,3.50
2023-03-11T17:37:57.321Z,3.50
2023-03-11T17:40:24.534Z,3.50
2023-03-11T17:42:51.587Z,3.40
2023-03-11T17:45:18.692Z,3.40
2023-03-11T17:47:45.915Z,3.40
2023-03-11T17:50:13.186Z,3.30
2023-03-11T17:52:40.364Z,3.30
2023-03-11T17:55:07.821Z,3.20
2023-03-11T17:57:44.431Z,3.20
2023-03-11T18:00:14.577Z,3.20
2023-03-11T18:02:41.820Z,3.10
2023-03-11T18:05:09.382Z,3.10
2023-03-11T18:07:38.954Z,3.10
2023-03-11T18:10:06.406Z,3.10
2023-03-11T18:12:33.596Z,3.10
2023-03-11T18:15:01.350Z,3.10
2023-03-11T18:17:28.958Z,3.10
2023-03-11T18:19:58.460Z,3.10
2023-03-11T18:22:26.897Z,3.10
2023-03-11T18:24:54.407Z,3.00
2023-03-11T18:27:21.562Z,3.00
2023-03-11T18:29:48.757Z,2.90
2023-03-11T18:32:16.573Z,2.90
2023-03-11T18:34:43.970Z,2.90
2023-03-11T18:37:11.085Z,2.90
2023-03-11T18:39:38.235Z,2.80
2023-03-11T18:42:05.767Z,2.80
2023-03-11T18:44:34.355Z,2.80
2023-03-11T18:47:02.295Z,2.80
2023-03-11T18:49:29.418Z,2.80
2023-03-11T18:51:56.457Z,2.70
2023-03-11T18:54:23.565Z,2.70
2023-03-11T18:56:51.196Z,2.70
2023-03-11T18:59:18.256Z,2.70
2023-03-11T19:01:45.313Z,2.70
2023-03-11T19:04:12.599Z,2.60
2023-03-11T19:06:39.676Z,2.60
2023-03-11T19:09:06.843Z,2.60
2023-03-11T19:11:33.991Z,2.50
2023-03-11T19:14:01.119Z,2.50
2023-03-11T19:16:28.290Z,2.50
2023-03-11T19:18:55.482Z,2.50
2023-03-11T19:21:22.617Z,2.50
2023-03-11T19:23:52.754Z,2.50
2023-03-11T19:26:21.031Z,2.40
2023-03-11T19:28:51.148Z,2.40
2023-03-11T19:31:18.434Z,2.40
2023-03-11T19:33:47.122Z,2.40
2023-03-11T19:36:14.574Z,2.40
2023-03-11T19:38:42.741Z,2.40
2023-03-11T19:41:18.664Z,2.40
2023-03-11T19:43:46.227Z,2.40
2023-03-11T19:46:14.095Z,2.40
2023-03-11T19:48:41.244Z,2.40
2023-03-11T19:51:08.412Z,2.40
2023-03-11T19:53:35.956Z,2.40
2023-03-11T19:56:04.662Z,2.40
2023-03-11T19:58:31.774Z,2.40
2023-03-11T20:00:59.193Z,2.40
2023-03-11T20:03:26.507Z,2.30
2023-03-11T20:05:56.543Z,2.30
2023-03-11T20:08:24.053Z,2.30
2023-03-11T20:10:51.465Z,2.30
2023-03-11T20:13:20.214Z,2.30
2023-03-11T20:15:47.465Z,2.20
2023-03-11T20:18:14.534Z,2.30
2023-03-11T20:20:43.253Z,2.30
2023-03-11T20:23:11.082Z,2.30
2023-03-11T20:25:39.007Z,2.20
2023-03-11T20:28:06.305Z,2.20
2023-03-11T20:30:33.582Z,2.20
2023-03-11T20:33:00.881Z,2.20
2023-03-11T20:35:28.188Z,2.10
2023-03-11T20:37:55.455Z,2.10
2023-03-11T20:40:22.792Z,2.10
2023-03-11T20:42:49.937Z,2.10
2023-03-11T20:45:21.384Z,2.00
2023-03-11T20:47:49.180Z,2.00
2023-03-11T20:50:16.535Z,2.00
2023-03-11T20:52:43.760Z,2.00
2023-03-11T20:55:11.133Z,1.90
2023-03-11T20:57:38.498Z,1.90
2023-03-11T21:00:09.636Z,1.90
2023-03-11T21:02:40.293Z,1.90
2023-03-11T21:05:08.147Z,1.90
2023-03-11T21:07:35.530Z,1.90
2023-03-11T21:10:03.745Z,1.80
2023-03-11T21:12:31.465Z,1.80
2023-03-11T21:14:58.852Z,1.80
2023-03-11T21:17:26.258Z,1.80
2023-03-11T21:19:53.537Z,1.80
2023-03-11T21:22:20.929Z,1.70
2023-03-11T21:24:52.174Z,1.70
2023-03-11T21:27:25.791Z,1.70
2023-03-11T21:29:53.593Z,1.70
2023-03-11T21:32:22.081Z,1.70
2023-03-11T21:34:49.407Z,1.70
2023-03-11T21:37:16.877Z,1.80
2023-03-11T21:39:44.074Z,1.70
2023-03-11T21:42:12.425Z,1.70
2023-03-11T21:44:40.480Z,1.70
2023-03-11T21:47:07.658Z,1.70
2023-03-11T21:49:36.035Z,1.70
2023-03-11T21:52:03.249Z,1.70
2023-03-11T21:54:30.468Z,1.70
2023-03-11T21:56:57.843Z,1.70
2023-03-11T21:59:25.707Z,1.80
2023-03-11T22:01:53.039Z,1.70
2023-03-11T22:04:20.536Z,1.80
2023-03-11T22:06:47.811Z,1.70
2023-03-11T22:09:15.066Z,1.70
2023-03-11T22:11:42.187Z,1.70
2023-03-11T22:14:09.444Z,1.70
2023-03-11T22:16:36.831Z,1.70
2023-03-11T22:19:05.307Z,1.70
2023-03-11T22:21:32.687Z,1.70
2023-03-11T22:23:59.908Z,1.70
2023-03-11T22:26:27.249Z,1.70
2023-03-11T22:28:54.665Z,1.60
2023-03-11T22:31:21.854Z,1.60
2023-03-11T22:33:49.027Z,1.60
2023-03-11T22:36:16.178Z,1.60
2023-03-11T22:38:46.210Z,1.60
2023-03-11T22:41:13.572Z,1.60
2023-03-11T22:43:40.752Z,1.60
2023-03-11T22:46:07.955Z,1.60
2023-03-11T22:48:35.144Z,1.60
2023-03-11T22:51:02.419Z,1.60
2023-03-11T22:53:29.685Z,1.60
2023-03-11T22:55:56.792Z,1.60
2023-03-11T22:58:24.062Z,1.60
2023-03-11T23:00:51.182Z,1.60
2023-03-11T23:03:18.328Z,1.60
2023-03-11T23:05:46.851Z,1.60
2023-03-11T23:08:14.429Z,1.50
2023-03-11T23:10:44.997Z,1.60
2023-03-11T23:13:12.417Z,1.50
2023-03-11T23:15:40.337Z,1.50
2023-03-11T23:18:07.569Z,1.50
2023-03-11T23:20:35.773Z,1.50
2023-03-11T23:23:03.359Z,1.40
2023-03-11T23:25:30.507Z,1.40
2023-03-11T23:27:57.852Z,1.50
2023-03-11T23:30:25.051Z,1.40
2023-03-11T23:32:52.180Z,1.40
2023-03-11T23:35:19.305Z,1.40
2023-03-11T23:37:49.937Z,1.40
2023-03-11T23:40:17.221Z,1.40
2023-03-11T23:42:44.383Z,1.40
2023-03-11T23:45:11.506Z,1.50
2023-03-11T23:47:38.589Z,1.40
2023-03-11T23:50:05.905Z,1.40
2023-03-11T23:52:33.005Z,1.40
2023-03-11T23:55:00.137Z,1.40
2023-03-11T23:57:27.225Z,1.40
2023-03-11T23:59:54.255Z,1.40
